sensor_id;sensor_type;location;lat;lon;timestamp;pressure;altitude;pressure_sealevel;temperature;humidity
7834;BME280;3962;42.696;23.354;2022-08-11T00:01:10;95374.28;;;19.94;79.31
7834;BME280;3962;42.696;23.354;2022-08-11T00:03:43;95372.19;;;19.89;79.37
7834;BME280;3962;42.696;23.354;2022-08-11T00:06:11;95377.22;;;19.92;79.47
7834;BME280;3962;42.696;23.354;2022-08-11T00:08:39;95361.56;;;19.81;79.90
7834;BME280;3962;42.696;23.354;2022-08-11T00:11:08;95368.66;;;19.82;79.86
7834;BME280;3962;42.696;23.354;2022-08-11T00:13:38;95373.22;;;19.88;80.14
7834;BME280;3962;42.696;23.354;2022-08-11T00:16:13;95368.59;;;19.76;79.96
7834;BME280;3962;42.696;23.354;2022-08-11T00:18:41;95364.22;;;19.68;80.40
7834;BME280;3962;42.696;23.354;2022-08-11T00:21:10;95369.63;;;19.68;80.46
7834;BME280;3962;42.696;23.354;2022-08-11T00:23:42;95376.50;;;19.71;80.06
7834;BME280;3962;42.696;23.354;2022-08-11T00:26:10;95367.91;;;19.61;80.61
7834;BME280;3962;42.696;23.354;2022-08-11T00:28:38;95367.72;;;19.62;80.84
7834;BME280;3962;42.696;23.354;2022-08-11T00:31:07;95360.47;;;19.63;80.82
7834;BME280;3962;42.696;23.354;2022-08-11T00:33:40;95355.72;;;19.71;80.54
7834;BME280;3962;42.696;23.354;2022-08-11T00:36:10;95359.44;;;19.64;80.67
7834;BME280;3962;42.696;23.354;2022-08-11T00:38:39;95355.09;;;19.69;80.34
7834;BME280;3962;42.696;23.354;2022-08-11T00:41:19;95359.63;;;19.62;80.71
7834;BME280;3962;42.696;23.354;2022-08-11T00:44:04;95355.00;;;19.56;81.04
7834;BME280;3962;42.696;23.354;2022-08-11T00:46:49;95351.28;;;19.57;80.64
7834;BME280;3962;42.696;23.354;2022-08-11T00:49:37;95358.94;;;19.54;81.15
7834;BME280;3962;42.696;23.354;2022-08-11T00:52:15;95364.31;;;19.47;81.40
7834;BME280;3962;42.696;23.354;2022-08-11T00:55:16;95360.38;;;19.50;81.17
7834;BME280;3962;42.696;23.354;2022-08-11T00:58:27;95358.31;;;19.52;81.00
7834;BME280;3962;42.696;23.354;2022-08-11T01:01:08;95363.97;;;19.57;81.01
7834;BME280;3962;42.696;23.354;2022-08-11T01:04:08;95362.28;;;19.56;80.90
7834;BME280;3962;42.696;23.354;2022-08-11T01:07:11;95358.13;;;19.53;81.06
7834;BME280;3962;42.696;23.354;2022-08-11T01:09:58;95367.28;;;19.59;81.47
7834;BME280;3962;42.696;23.354;2022-08-11T01:12:39;95368.25;;;19.45;81.49
7834;BME280;3962;42.696;23.354;2022-08-11T01:15:32;95358.47;;;19.44;82.01
7834;BME280;3962;42.696;23.354;2022-08-11T01:27:52;95355.44;;;19.19;82.88
7834;BME280;3962;42.696;23.354;2022-08-11T01:31:05;95348.53;;;19.17;83.37
7834;BME280;3962;42.696;23.354;2022-08-11T01:36:56;95346.16;;;19.01;84.11
7834;BME280;3962;42.696;23.354;2022-08-11T01:39:53;95343.63;;;18.99;84.35
7834;BME280;3962;42.696;23.354;2022-08-11T01:42:58;95345.56;;;19.05;84.71
7834;BME280;3962;42.696;23.354;2022-08-11T01:45:47;95332.72;;;19.14;83.94
7834;BME280;3962;42.696;23.354;2022-08-11T01:48:24;95345.06;;;19.23;83.56
7834;BME280;3962;42.696;23.354;2022-08-11T01:51:07;95335.13;;;19.23;83.26
7834;BME280;3962;42.696;23.354;2022-08-11T01:53:50;95338.56;;;19.17;83.51
7834;BME280;3962;42.696;23.354;2022-08-11T01:56:37;95341.41;;;19.09;83.89
7834;BME280;3962;42.696;23.354;2022-08-11T01:59:13;95344.53;;;19.06;83.69
7834;BME280;3962;42.696;23.354;2022-08-11T02:01:54;95312.81;;;18.81;84.29
7834;BME280;3962;42.696;23.354;2022-08-11T02:04:30;95343.44;;;19.01;84.35
7834;BME280;3962;42.696;23.354;2022-08-11T02:07:07;95336.16;;;18.95;84.50
7834;BME280;3962;42.696;23.354;2022-08-11T02:09:46;95332.38;;;18.89;84.57
7834;BME280;3962;42.696;23.354;2022-08-11T02:12:26;95337.06;;;18.81;84.68
7834;BME280;3962;42.696;23.354;2022-08-11T02:15:02;95341.66;;;18.81;85.39
7834;BME280;3962;42.696;23.354;2022-08-11T02:17:46;95340.34;;;18.77;85.34
7834;BME280;3962;42.696;23.354;2022-08-11T02:20:19;95345.41;;;18.86;85.27
7834;BME280;3962;42.696;23.354;2022-08-11T02:23:16;95341.72;;;18.93;84.87
7834;BME280;3962;42.696;23.354;2022-08-11T02:26:17;95341.06;;;18.85;85.15
7834;BME280;3962;42.696;23.354;2022-08-11T02:29:01;95344.34;;;18.81;84.99
7834;BME280;3962;42.696;23.354;2022-08-11T02:31:45;95344.72;;;18.77;85.27
7834;BME280;3962;42.696;23.354;2022-08-11T02:34:41;95348.41;;;18.70;85.35
7834;BME280;3962;42.696;23.354;2022-08-11T02:37:17;95341.50;;;18.40;86.37
7834;BME280;3962;42.696;23.354;2022-08-11T02:40:07;95347.88;;;18.18;87.36
7834;BME280;3962;42.696;23.354;2022-08-11T02:42:41;95337.09;;;18.18;88.08
7834;BME280;3962;42.696;23.354;2022-08-11T02:45:30;95344.09;;;18.13;88.06
7834;BME280;3962;42.696;23.354;2022-08-11T02:48:05;95343.00;;;18.07;88.29
7834;BME280;3962;42.696;23.354;2022-08-11T02:51:02;95338.94;;;17.97;88.91
7834;BME280;3962;42.696;23.354;2022-08-11T02:53:38;95338.22;;;17.88;89.33
7834;BME280;3962;42.696;23.354;2022-08-11T02:56:10;95335.53;;;17.88;89.35
7834;BME280;3962;42.696;23.354;2022-08-11T02:58:48;95350.47;;;17.91;89.20
7834;BME280;3962;42.696;23.354;2022-08-11T03:01:40;95346.38;;;17.95;89.15
7834;BME280;3962;42.696;23.354;2022-08-11T03:04:14;95341.56;;;17.90;89.21
7834;BME280;3962;42.696;23.354;2022-08-11T03:06:49;95337.19;;;17.89;89.38
7834;BME280;3962;42.696;23.354;2022-08-11T03:09:23;95336.50;;;17.81;89.47
7834;BME280;3962;42.696;23.354;2022-08-11T03:12:05;95341.03;;;17.80;89.38
7834;BME280;3962;42.696;23.354;2022-08-11T03:15:12;95351.69;;;17.88;89.33
7834;BME280;3962;42.696;23.354;2022-08-11T03:18:09;95351.22;;;17.85;89.37
7834;BME280;3962;42.696;23.354;2022-08-11T03:20:44;95348.28;;;17.80;89.19
7834;BME280;3962;42.696;23.354;2022-08-11T03:23:20;95348.63;;;17.77;89.32
7834;BME280;3962;42.696;23.354;2022-08-11T03:25:59;95351.91;;;17.72;89.32
7834;BME280;3962;42.696;23.354;2022-08-11T03:28:32;95345.59;;;17.65;89.72
7834;BME280;3962;42.696;23.354;2022-08-11T03:31:17;95347.19;;;17.60;90.23
7834;BME280;3962;42.696;23.354;2022-08-11T03:33:51;95349.41;;;17.56;90.15
7834;BME280;3962;42.696;23.354;2022-08-11T03:36:58;95349.13;;;17.66;90.30
7834;BME280;3962;42.696;23.354;2022-08-11T03:39:41;95344.81;;;17.86;89.34
7834;BME280;3962;42.696;23.354;2022-08-11T03:42:17;95345.59;;;18.01;88.50
7834;BME280;3962;42.696;23.354;2022-08-11T03:45:02;95353.09;;;18.05;88.08
7834;BME280;3962;42.696;23.354;2022-08-11T03:47:47;95349.72;;;17.97;87.96
7834;BME280;3962;42.696;23.354;2022-08-11T03:50:34;95351.88;;;18.08;87.79
7834;BME280;3962;42.696;23.354;2022-08-11T03:53:16;95350.28;;;18.13;87.37
7834;BME280;3962;42.696;23.354;2022-08-11T03:56:18;95356.34;;;18.15;87.27
7834;BME280;3962;42.696;23.354;2022-08-11T03:59:21;95360.50;;;18.18;86.99
7834;BME280;3962;42.696;23.354;2022-08-11T04:02:07;95356.56;;;18.20;86.39
7834;BME280;3962;42.696;23.354;2022-08-11T04:04:57;95365.63;;;18.13;86.66
7834;BME280;3962;42.696;23.354;2022-08-11T04:08:01;95355.84;;;17.91;87.59
7834;BME280;3962;42.696;23.354;2022-08-11T04:10:59;95352.81;;;17.79;88.20
7834;BME280;3962;42.696;23.354;2022-08-11T04:17:07;95360.53;;;17.82;88.12
7834;BME280;3962;42.696;23.354;2022-08-11T04:26:05;95368.94;;;17.94;86.90
7834;BME280;3962;42.696;23.354;2022-08-11T04:28:59;95357.91;;;17.89;87.48
7834;BME280;3962;42.696;23.354;2022-08-11T04:31:44;95367.38;;;17.85;87.93
7834;BME280;3962;42.696;23.354;2022-08-11T04:34:41;95368.25;;;18.06;86.88
7834;BME280;3962;42.696;23.354;2022-08-11T04:37:22;95363.22;;;18.18;86.40
7834;BME280;3962;42.696;23.354;2022-08-11T04:40:45;95364.00;;;18.33;85.57
7834;BME280;3962;42.696;23.354;2022-08-11T04:43:49;95359.28;;;18.20;86.16
7834;BME280;3962;42.696;23.354;2022-08-11T04:46:52;95368.22;;;18.63;86.25
7834;BME280;3962;42.696;23.354;2022-08-11T04:49:52;95365.56;;;18.42;85.51
7834;BME280;3962;42.696;23.354;2022-08-11T04:53:12;95369.44;;;18.60;84.62
7834;BME280;3962;42.696;23.354;2022-08-11T04:56:04;95373.72;;;18.76;84.28
7834;BME280;3962;42.696;23.354;2022-08-11T04:59:30;95371.50;;;18.58;84.61
7834;BME280;3962;42.696;23.354;2022-08-11T05:02:48;95371.66;;;18.77;83.80
7834;BME280;3962;42.696;23.354;2022-08-11T05:05:34;95365.19;;;18.72;83.88
7834;BME280;3962;42.696;23.354;2022-08-11T05:09:00;95361.06;;;18.76;84.21
7834;BME280;3962;42.696;23.354;2022-08-11T05:11:52;95370.78;;;18.71;84.38
7834;BME280;3962;42.696;23.354;2022-08-11T05:14:29;95371.56;;;18.65;84.59
7834;BME280;3962;42.696;23.354;2022-08-11T05:17:23;95377.69;;;18.79;84.15
7834;BME280;3962;42.696;23.354;2022-08-11T05:20:11;95362.09;;;18.75;83.64
7834;BME280;3962;42.696;23.354;2022-08-11T05:23:02;95371.97;;;18.89;83.68
7834;BME280;3962;42.696;23.354;2022-08-11T05:25:52;95372.81;;;18.89;83.90
7834;BME280;3962;42.696;23.354;2022-08-11T05:28:41;95381.78;;;18.96;83.75
7834;BME280;3962;42.696;23.354;2022-08-11T05:31:34;95373.94;;;19.01;83.51
7834;BME280;3962;42.696;23.354;2022-08-11T05:34:22;95371.31;;;19.08;83.37
7834;BME280;3962;42.696;23.354;2022-08-11T05:37:11;95372.44;;;18.99;83.83
7834;BME280;3962;42.696;23.354;2022-08-11T05:39:43;95370.72;;;19.12;83.24
7834;BME280;3962;42.696;23.354;2022-08-11T05:42:33;95364.66;;;19.38;82.15
7834;BME280;3962;42.696;23.354;2022-08-11T05:45:18;95378.94;;;19.59;81.99
7834;BME280;3962;42.696;23.354;2022-08-11T05:48:03;95362.28;;;19.56;81.75
7834;BME280;3962;42.696;23.354;2022-08-11T05:50:52;95373.09;;;19.56;81.50
7834;BME280;3962;42.696;23.354;2022-08-11T05:53:51;95369.56;;;19.62;81.42
7834;BME280;3962;42.696;23.354;2022-08-11T05:56:41;95366.53;;;19.78;80.93
7834;BME280;3962;42.696;23.354;2022-08-11T05:59:13;95364.31;;;19.94;79.81
7834;BME280;3962;42.696;23.354;2022-08-11T06:01:42;95357.69;;;19.90;79.91
7834;BME280;3962;42.696;23.354;2022-08-11T06:04:15;95366.19;;;19.94;79.96
7834;BME280;3962;42.696;23.354;2022-08-11T06:06:52;95368.50;;;20.03;79.97
7834;BME280;3962;42.696;23.354;2022-08-11T06:09:28;95367.13;;;20.07;79.68
7834;BME280;3962;42.696;23.354;2022-08-11T06:11:58;95364.84;;;20.17;79.23
7834;BME280;3962;42.696;23.354;2022-08-11T06:14:28;95367.19;;;20.27;79.29
7834;BME280;3962;42.696;23.354;2022-08-11T06:16:57;95367.00;;;20.35;78.70
7834;BME280;3962;42.696;23.354;2022-08-11T06:19:36;95370.31;;;20.37;79.14
7834;BME280;3962;42.696;23.354;2022-08-11T06:22:07;95360.38;;;20.70;78.41
7834;BME280;3962;42.696;23.354;2022-08-11T06:24:37;95364.56;;;20.85;76.86
7834;BME280;3962;42.696;23.354;2022-08-11T06:27:06;95356.84;;;20.76;77.07
7834;BME280;3962;42.696;23.354;2022-08-11T06:29:35;95357.28;;;21.05;76.29
7834;BME280;3962;42.696;23.354;2022-08-11T06:32:05;95355.38;;;21.45;74.64
7834;BME280;3962;42.696;23.354;2022-08-11T06:34:49;95356.56;;;21.68;74.18
7834;BME280;3962;42.696;23.354;2022-08-11T06:37:25;95355.97;;;21.66;73.29
7834;BME280;3962;42.696;23.354;2022-08-11T06:40:06;95356.16;;;21.58;73.82
7834;BME280;3962;42.696;23.354;2022-08-11T06:42:47;95354.53;;;21.44;74.49
7834;BME280;3962;42.696;23.354;2022-08-11T06:45:25;95354.72;;;21.49;74.31
7834;BME280;3962;42.696;23.354;2022-08-11T06:47:53;95354.28;;;21.72;73.49
7834;BME280;3962;42.696;23.354;2022-08-11T06:50:23;95357.81;;;22.23;72.13
7834;BME280;3962;42.696;23.354;2022-08-11T06:53:08;95357.44;;;22.57;69.57
7834;BME280;3962;42.696;23.354;2022-08-11T06:55:39;95344.19;;;22.42;68.24
7834;BME280;3962;42.696;23.354;2022-08-11T06:58:31;95362.66;;;22.83;66.77
7834;BME280;3962;42.696;23.354;2022-08-11T07:01:21;95352.81;;;22.64;66.56
7834;BME280;3962;42.696;23.354;2022-08-11T07:03:58;95348.56;;;22.98;65.25
7834;BME280;3962;42.696;23.354;2022-08-11T07:06:34;95355.94;;;24.01;63.08
7834;BME280;3962;42.696;23.354;2022-08-11T07:15:52;95368.47;;;26.23;55.45
7834;BME280;3962;42.696;23.354;2022-08-11T07:21:45;95377.75;;;25.76;55.69
7834;BME280;3962;42.696;23.354;2022-08-11T07:24:34;95368.06;;;26.43;54.03
7834;BME280;3962;42.696;23.354;2022-08-11T07:27:20;95369.53;;;26.73;53.48
7834;BME280;3962;42.696;23.354;2022-08-11T07:30:09;95367.06;;;26.60;52.58
7834;BME280;3962;42.696;23.354;2022-08-11T07:32:40;95369.13;;;26.02;54.43
7834;BME280;3962;42.696;23.354;2022-08-11T07:35:12;95362.63;;;25.92;53.61
7834;BME280;3962;42.696;23.354;2022-08-11T07:37:49;95363.53;;;25.86;54.07
7834;BME280;3962;42.696;23.354;2022-08-11T07:40:20;95361.28;;;26.45;52.64
7834;BME280;3962;42.696;23.354;2022-08-11T07:42:49;95334.88;;;27.51;49.71
7834;BME280;3962;42.696;23.354;2022-08-11T07:45:16;95361.16;;;28.71;47.34
7834;BME280;3962;42.696;23.354;2022-08-11T07:48:01;95364.50;;;28.99;46.43
7834;BME280;3962;42.696;23.354;2022-08-11T07:50:46;95361.88;;;28.02;47.89
7834;BME280;3962;42.696;23.354;2022-08-11T07:53:33;95357.47;;;28.17;46.51
7834;BME280;3962;42.696;23.354;2022-08-11T07:56:03;95365.66;;;28.82;45.57
7834;BME280;3962;42.696;23.354;2022-08-11T07:58:33;95364.31;;;29.64;44.67
7834;BME280;3962;42.696;23.354;2022-08-11T08:01:20;95358.84;;;29.69;42.40
7834;BME280;3962;42.696;23.354;2022-08-11T08:04:06;95358.03;;;29.68;43.60
7834;BME280;3962;42.696;23.354;2022-08-11T08:06:51;95361.75;;;29.52;44.74
7834;BME280;3962;42.696;23.354;2022-08-11T08:09:39;95360.72;;;29.58;44.20
7834;BME280;3962;42.696;23.354;2022-08-11T08:12:24;95354.38;;;29.58;43.36
7834;BME280;3962;42.696;23.354;2022-08-11T08:15:10;95356.72;;;30.17;41.90
7834;BME280;3962;42.696;23.354;2022-08-11T08:17:57;95360.03;;;30.19;42.44
7834;BME280;3962;42.696;23.354;2022-08-11T08:20:27;95361.13;;;30.65;41.81
7834;BME280;3962;42.696;23.354;2022-08-11T08:22:56;95349.31;;;30.69;42.09
7834;BME280;3962;42.696;23.354;2022-08-11T08:25:26;95349.25;;;29.66;42.78
7834;BME280;3962;42.696;23.354;2022-08-11T08:27:55;95342.91;;;29.03;44.34
7834;BME280;3962;42.696;23.354;2022-08-11T08:30:23;95348.72;;;28.85;44.57
7834;BME280;3962;42.696;23.354;2022-08-11T08:33:08;95353.28;;;29.27;43.99
7834;BME280;3962;42.696;23.354;2022-08-11T08:35:38;95348.19;;;29.72;42.32
7834;BME280;3962;42.696;23.354;2022-08-11T08:38:07;95331.81;;;29.87;42.59
7834;BME280;3962;42.696;23.354;2022-08-11T08:40:36;95339.03;;;30.03;42.67
7834;BME280;3962;42.696;23.354;2022-08-11T08:43:07;95337.81;;;29.79;42.91
7834;BME280;3962;42.696;23.354;2022-08-11T08:45:36;95341.63;;;30.15;42.76
7834;BME280;3962;42.696;23.354;2022-08-11T08:48:07;95335.22;;;30.04;41.77
7834;BME280;3962;42.696;23.354;2022-08-11T08:50:42;95329.47;;;30.06;42.75
7834;BME280;3962;42.696;23.354;2022-08-11T08:53:29;95331.66;;;30.04;42.41
7834;BME280;3962;42.696;23.354;2022-08-11T08:56:02;95340.03;;;29.82;43.50
7834;BME280;3962;42.696;23.354;2022-08-11T08:58:30;95339.53;;;29.90;42.85
7834;BME280;3962;42.696;23.354;2022-08-11T09:00:59;95320.56;;;30.30;42.18
7834;BME280;3962;42.696;23.354;2022-08-11T09:03:27;95335.31;;;30.19;42.13
7834;BME280;3962;42.696;23.354;2022-08-11T09:05:54;95320.88;;;28.71;45.29
7834;BME280;3962;42.696;23.354;2022-08-11T09:08:22;95316.50;;;27.84;47.14
7834;BME280;3962;42.696;23.354;2022-08-11T09:10:50;95319.31;;;28.11;47.73
7834;BME280;3962;42.696;23.354;2022-08-11T09:13:33;95323.94;;;29.28;45.49
7834;BME280;3962;42.696;23.354;2022-08-11T09:16:01;95316.00;;;30.04;43.75
7834;BME280;3962;42.696;23.354;2022-08-11T09:18:29;95321.63;;;30.24;42.98
7834;BME280;3962;42.696;23.354;2022-08-11T09:20:56;95313.72;;;29.86;43.27
7834;BME280;3962;42.696;23.354;2022-08-11T09:23:24;95304.81;;;29.38;44.58
7834;BME280;3962;42.696;23.354;2022-08-11T09:26:09;95312.00;;;29.44;43.72
7834;BME280;3962;42.696;23.354;2022-08-11T09:28:57;95316.25;;;29.56;45.01
7834;BME280;3962;42.696;23.354;2022-08-11T09:31:25;95306.72;;;29.69;43.74
7834;BME280;3962;42.696;23.354;2022-08-11T09:33:53;95320.84;;;29.82;42.35
7834;BME280;3962;42.696;23.354;2022-08-11T09:36:21;95324.44;;;29.88;43.01
7834;BME280;3962;42.696;23.354;2022-08-11T09:39:06;95307.84;;;28.52;44.91
7834;BME280;3962;42.696;23.354;2022-08-11T09:41:50;95309.03;;;28.61;45.04
7834;BME280;3962;42.696;23.354;2022-08-11T09:44:20;95307.81;;;29.00;44.82
7834;BME280;3962;42.696;23.354;2022-08-11T09:47:05;95302.16;;;28.58;45.87
7834;BME280;3962;42.696;23.354;2022-08-11T09:49:40;95300.25;;;27.94;46.71
7834;BME280;3962;42.696;23.354;2022-08-11T09:52:09;95298.28;;;28.11;45.50
7834;BME280;3962;42.696;23.354;2022-08-11T09:54:38;95301.38;;;28.89;44.22
7834;BME280;3962;42.696;23.354;2022-08-11T09:57:06;95304.47;;;28.93;43.58
7834;BME280;3962;42.696;23.354;2022-08-11T09:59:52;95295.78;;;29.06;43.47
7834;BME280;3962;42.696;23.354;2022-08-11T10:02:24;95279.41;;;29.42;42.77
7834;BME280;3962;42.696;23.354;2022-08-11T10:04:55;95282.03;;;29.32;43.69
7834;BME280;3962;42.696;23.354;2022-08-11T10:07:44;95277.53;;;29.16;44.11
7834;BME280;3962;42.696;23.354;2022-08-11T10:10:15;95279.41;;;28.84;44.87
7834;BME280;3962;42.696;23.354;2022-08-11T10:12:47;95276.41;;;29.12;44.67
7834;BME280;3962;42.696;23.354;2022-08-11T10:15:18;95269.78;;;29.40;43.47
7834;BME280;3962;42.696;23.354;2022-08-11T10:18:03;95276.72;;;29.16;43.54
7834;BME280;3962;42.696;23.354;2022-08-11T10:20:49;95274.97;;;29.36;42.76
7834;BME280;3962;42.696;23.354;2022-08-11T10:23:18;95279.88;;;29.03;43.65
7834;BME280;3962;42.696;23.354;2022-08-11T10:26:04;95277.59;;;29.21;43.28
7834;BME280;3962;42.696;23.354;2022-08-11T10:28:50;95273.63;;;28.81;43.20
7834;BME280;3962;42.696;23.354;2022-08-11T10:31:20;95277.06;;;28.71;43.59
7834;BME280;3962;42.696;23.354;2022-08-11T10:34:06;95282.56;;;28.71;44.00
7834;BME280;3962;42.696;23.354;2022-08-11T10:36:36;95282.75;;;28.91;43.71
7834;BME280;3962;42.696;23.354;2022-08-11T10:39:08;95276.53;;;29.27;43.20
7834;BME280;3962;42.696;23.354;2022-08-11T10:41:38;95280.16;;;29.38;42.45
7834;BME280;3962;42.696;23.354;2022-08-11T10:44:23;95267.53;;;29.37;42.37
7834;BME280;3962;42.696;23.354;2022-08-11T10:46:52;95261.50;;;29.35;42.47
7834;BME280;3962;42.696;23.354;2022-08-11T10:49:36;95262.91;;;29.01;42.34
7834;BME280;3962;42.696;23.354;2022-08-11T10:52:03;95259.13;;;29.43;42.30
7834;BME280;3962;42.696;23.354;2022-08-11T10:54:48;95254.03;;;29.25;42.78
7834;BME280;3962;42.696;23.354;2022-08-11T10:57:33;95258.50;;;29.00;43.36
7834;BME280;3962;42.696;23.354;2022-08-11T11:00:17;95258.41;;;29.21;42.95
7834;BME280;3962;42.696;23.354;2022-08-11T11:02:46;95258.03;;;29.13;42.82
7834;BME280;3962;42.696;23.354;2022-08-11T11:05:15;95249.59;;;28.61;43.94
7834;BME280;3962;42.696;23.354;2022-08-11T11:07:54;95251.78;;;28.91;43.51
7834;BME280;3962;42.696;23.354;2022-08-11T11:10:21;95244.69;;;29.21;42.66
7834;BME280;3962;42.696;23.354;2022-08-11T11:12:53;95255.94;;;28.67;44.09
7834;BME280;3962;42.696;23.354;2022-08-11T11:15:41;95238.66;;;28.13;45.45
7834;BME280;3962;42.696;23.354;2022-08-11T11:18:31;95241.41;;;27.54;46.14
7834;BME280;3962;42.696;23.354;2022-08-11T11:21:05;95252.91;;;28.15;45.32
7834;BME280;3962;42.696;23.354;2022-08-11T11:23:37;95237.09;;;28.97;43.80
7834;BME280;3962;42.696;23.354;2022-08-11T11:26:32;95242.44;;;29.13;42.88
7834;BME280;3962;42.696;23.354;2022-08-11T11:32:10;95234.34;;;30.21;40.67
7834;BME280;3962;42.696;23.354;2022-08-11T11:35:12;95246.16;;;30.32;40.62
7834;BME280;3962;42.696;23.354;2022-08-11T11:37:45;95247.59;;;30.59;40.60
7834;BME280;3962;42.696;23.354;2022-08-11T11:40:16;95250.09;;;29.94;41.52
7834;BME280;3962;42.696;23.354;2022-08-11T11:42:47;95248.19;;;28.54;44.11
7834;BME280;3962;42.696;23.354;2022-08-11T11:45:16;95243.91;;;28.20;44.78
7834;BME280;3962;42.696;23.354;2022-08-11T11:47:44;95239.91;;;28.27;45.06
7834;BME280;3962;42.696;23.354;2022-08-11T11:50:22;95235.81;;;27.44;46.19
7834;BME280;3962;42.696;23.354;2022-08-11T11:52:51;95236.53;;;27.18;46.85
7834;BME280;3962;42.696;23.354;2022-08-11T11:55:20;95224.75;;;26.52;48.44
7834;BME280;3962;42.696;23.354;2022-08-11T11:57:49;95230.22;;;26.52;48.60
7834;BME280;3962;42.696;23.354;2022-08-11T12:00:33;95220.94;;;27.19;47.36
7834;BME280;3962;42.696;23.354;2022-08-11T12:03:18;95228.47;;;27.28;47.05
7834;BME280;3962;42.696;23.354;2022-08-11T12:05:47;95230.88;;;26.75;48.80
7834;BME280;3962;42.696;23.354;2022-08-11T12:08:18;95218.78;;;26.88;48.97
7834;BME280;3962;42.696;23.354;2022-08-11T12:10:49;95218.22;;;26.53;49.62
7834;BME280;3962;42.696;23.354;2022-08-11T12:13:38;95215.63;;;26.18;50.67
7834;BME280;3962;42.696;23.354;2022-08-11T12:16:08;95216.84;;;26.39;50.07
7834;BME280;3962;42.696;23.354;2022-08-11T12:18:36;95213.94;;;26.45;49.98
7834;BME280;3962;42.696;23.354;2022-08-11T12:21:05;95218.66;;;26.33;50.84
7834;BME280;3962;42.696;23.354;2022-08-11T12:23:34;95224.16;;;25.94;52.97
7834;BME280;3962;42.696;23.354;2022-08-11T12:26:19;95216.78;;;26.06;52.72
7834;BME280;3962;42.696;23.354;2022-08-11T12:29:04;95212.50;;;25.98;51.56
7834;BME280;3962;42.696;23.354;2022-08-11T12:31:32;95224.22;;;25.59;52.27
7834;BME280;3962;42.696;23.354;2022-08-11T12:34:01;95228.44;;;25.78;52.56
7834;BME280;3962;42.696;23.354;2022-08-11T12:36:37;95219.66;;;26.44;50.54
7834;BME280;3962;42.696;23.354;2022-08-11T12:39:06;95229.81;;;26.76;49.06
7834;BME280;3962;42.696;23.354;2022-08-11T12:41:36;95229.31;;;26.63;49.67
7834;BME280;3962;42.696;23.354;2022-08-11T12:44:23;95232.97;;;26.12;48.97
7834;BME280;3962;42.696;23.354;2022-08-11T12:47:09;95244.31;;;25.81;54.04
7834;BME280;3962;42.696;23.354;2022-08-11T12:49:40;95248.75;;;25.13;56.42
7834;BME280;3962;42.696;23.354;2022-08-11T12:52:33;95247.28;;;25.80;55.24
7834;BME280;3962;42.696;23.354;2022-08-11T12:55:04;95241.91;;;25.57;54.67
7834;BME280;3962;42.696;23.354;2022-08-11T12:57:36;95239.06;;;25.52;55.72
7834;BME280;3962;42.696;23.354;2022-08-11T13:00:23;95244.88;;;25.83;54.17
7834;BME280;3962;42.696;23.354;2022-08-11T13:03:09;95241.94;;;25.96;54.64
7834;BME280;3962;42.696;23.354;2022-08-11T13:05:55;95224.88;;;25.15;56.50
7834;BME280;3962;42.696;23.354;2022-08-11T13:08:25;95224.47;;;24.66;57.79
7834;BME280;3962;42.696;23.354;2022-08-11T13:10:57;95236.91;;;24.96;57.88
7834;BME280;3962;42.696;23.354;2022-08-11T13:13:44;95236.59;;;25.39;55.75
7834;BME280;3962;42.696;23.354;2022-08-11T13:16:12;95222.97;;;25.39;55.65
7834;BME280;3962;42.696;23.354;2022-08-11T13:18:40;95221.75;;;25.58;55.19
7834;BME280;3962;42.696;23.354;2022-08-11T13:21:08;95218.16;;;25.69;52.63
7834;BME280;3962;42.696;23.354;2022-08-11T13:23:38;95214.00;;;25.66;53.30
7834;BME280;3962;42.696;23.354;2022-08-11T13:26:06;95210.50;;;25.54;53.77
7834;BME280;3962;42.696;23.354;2022-08-11T13:28:33;95211.06;;;25.68;53.63
7834;BME280;3962;42.696;23.354;2022-08-11T13:31:02;95209.41;;;26.06;51.31
7834;BME280;3962;42.696;23.354;2022-08-11T13:33:41;95208.38;;;26.24;50.45
7834;BME280;3962;42.696;23.354;2022-08-11T13:36:10;95205.31;;;26.20;49.97
7834;BME280;3962;42.696;23.354;2022-08-11T13:38:40;95210.41;;;26.00;48.95
7834;BME280;3962;42.696;23.354;2022-08-11T13:41:08;95201.09;;;26.29;47.11
7834;BME280;3962;42.696;23.354;2022-08-11T13:43:49;95205.94;;;26.39;47.59
7834;BME280;3962;42.696;23.354;2022-08-11T13:46:17;95199.97;;;26.42;47.78
7834;BME280;3962;42.696;23.354;2022-08-11T13:48:49;95197.22;;;26.25;46.79
7834;BME280;3962;42.696;23.354;2022-08-11T13:51:17;95202.22;;;26.45;48.61
7834;BME280;3962;42.696;23.354;2022-08-11T13:54:01;95192.16;;;26.62;47.29
7834;BME280;3962;42.696;23.354;2022-08-11T13:56:29;95192.56;;;26.70;46.27
7834;BME280;3962;42.696;23.354;2022-08-11T13:58:57;95189.69;;;26.77;45.86
7834;BME280;3962;42.696;23.354;2022-08-11T14:01:28;95181.84;;;26.80;45.91
7834;BME280;3962;42.696;23.354;2022-08-11T14:04:02;95179.09;;;26.80;46.38
7834;BME280;3962;42.696;23.354;2022-08-11T14:06:32;95182.06;;;26.79;46.31
7834;BME280;3962;42.696;23.354;2022-08-11T14:09:03;95175.09;;;26.88;45.59
7834;BME280;3962;42.696;23.354;2022-08-11T14:11:33;95187.69;;;27.05;46.09
7834;BME280;3962;42.696;23.354;2022-08-11T14:14:22;95181.69;;;27.08;45.61
7834;BME280;3962;42.696;23.354;2022-08-11T14:16:53;95178.78;;;27.31;45.82
7834;BME280;3962;42.696;23.354;2022-08-11T14:19:24;95178.91;;;27.20;46.62
7834;BME280;3962;42.696;23.354;2022-08-11T14:21:52;95188.81;;;27.09;45.81
7834;BME280;3962;42.696;23.354;2022-08-11T14:24:38;95187.72;;;27.10;46.08
7834;BME280;3962;42.696;23.354;2022-08-11T14:27:06;95180.88;;;27.24;45.93
7834;BME280;3962;42.696;23.354;2022-08-11T14:29:35;95187.72;;;27.43;47.03
7834;BME280;3962;42.696;23.354;2022-08-11T14:32:05;95180.19;;;27.34;48.44
7834;BME280;3962;42.696;23.354;2022-08-11T14:34:34;95188.81;;;27.26;48.31
7834;BME280;3962;42.696;23.354;2022-08-11T14:37:04;95172.09;;;27.06;48.88
7834;BME280;3962;42.696;23.354;2022-08-11T14:39:34;95172.03;;;27.01;48.19
7834;BME280;3962;42.696;23.354;2022-08-11T14:42:05;95170.84;;;27.30;46.50
7834;BME280;3962;42.696;23.354;2022-08-11T14:44:52;95172.50;;;27.31;46.92
7834;BME280;3962;42.696;23.354;2022-08-11T14:47:45;95170.03;;;27.29;45.96
7834;BME280;3962;42.696;23.354;2022-08-11T14:50:14;95178.63;;;27.05;46.36